sensor_id;sensor_type;location;lat;lon;timestamp;P1;durP1;ratioP1;P2;durP2;ratioP2
43819;SDS011;67762;52.476;6.046;2023-07-13T00:02:22;1999.90;;;999.90;;
43819;SDS011;67762;52.476;6.046;2023-07-13T00:04:49;1999.90;;;999.90;;
43819;SDS011;67762;52.476;6.046;2023-07-13T00:07:15;1999.90;;;999.90;;
43819;SDS011;67762;52.476;6.046;2023-07-13T00:09:45;1999.90;;;999.90;;
43819;SDS011;67762;52.476;6.046;2023-07-13T00:12:26;1999.90;;;999.90;;
43819;SDS011;67762;52.476;6.046;2023-07-13T00:14:57;1999.90;;;999.90;;
43819;SDS011;67762;52.476;6.046;2023-07-13T00:17:25;1999.90;;;999.90;;
43819;SDS011;67762;52.476;6.046;2023-07-13T00:19:52;1999.90;;;999.90;;
43819;SDS011;67762;52.476;6.046;2023-07-13T00:22:18;1999.90;;;999.90;;
43819;SDS011;67762;52.476;6.046;2023-07-13T00:24:45;1999.90;;;999.90;;
43819;SDS011;67762;52.476;6.046;2023-07-13T00:27:11;1999.90;;;999.90;;
43819;SDS011;67762;52.476;6.046;2023-07-13T00:29:37;1999.90;;;999.90;;
43819;SDS011;67762;52.476;6.046;2023-07-13T00:32:03;1999.90;;;999.90;;
43819;SDS011;67762;52.476;6.046;2023-07-13T00:34:30;1999.90;;;999.90;;
43819;SDS011;67762;52.476;6.046;2023-07-13T00:36:56;1999.90;;;999.90;;
43819;SDS011;67762;52.476;6.046;2023-07-13T00:39:23;1999.90;;;999.90;;
43819;SDS011;67762;52.476;6.046;2023-07-13T00:41:49;1999.90;;;999.90;;
43819;SDS011;67762;52.476;6.046;2023-07-13T00:44:16;1999.90;;;999.90;;
43819;SDS011;67762;52.476;6.046;2023-07-13T00:46:46;1999.90;;;999.90;;
43819;SDS011;67762;52.476;6.046;2023-07-13T00:49:13;1999.90;;;999.90;;
43819;SDS011;67762;52.476;6.046;2023-07-13T00:51:45;1999.90;;;999.90;;
43819;SDS011;67762;52.476;6.046;2023-07-13T00:54:18;1999.90;;;999.90;;
43819;SDS011;67762;52.476;6.046;2023-07-13T00:56:47;1999.90;;;999.90;;
43819;SDS011;67762;52.476;6.046;2023-07-13T00:59:16;1999.90;;;999.90;;
43819;SDS011;67762;52.476;6.046;2023-07-13T01:01:45;1999.90;;;999.90;;
43819;SDS011;67762;52.476;6.046;2023-07-13T01:04:11;1999.90;;;999.90;;
43819;SDS011;67762;52.476;6.046;2023-07-13T01:06:38;1999.90;;;999.90;;
43819;SDS011;67762;52.476;6.046;2023-07-13T01:09:06;1999.90;;;999.90;;
43819;SDS011;67762;52.476;6.046;2023-07-13T01:11:33;1999.90;;;999.90;;
43819;SDS011;67762;52.476;6.046;2023-07-13T01:14:00;1999.90;;;999.90;;
43819;SDS011;67762;52.476;6.046;2023-07-13T01:16:27;1999.90;;;999.90;;
43819;SDS011;67762;52.476;6.046;2023-07-13T01:18:55;1999.90;;;999.90;;
43819;SDS011;67762;52.476;6.046;2023-07-13T01:21:25;1999.90;;;999.90;;
43819;SDS011;67762;52.476;6.046;2023-07-13T01:23:52;1999.90;;;999.90;;
43819;SDS011;67762;52.476;6.046;2023-07-13T01:26:19;1999.90;;;999.90;;
43819;SDS011;67762;52.476;6.046;2023-07-13T01:28:45;1999.90;;;999.90;;
43819;SDS011;67762;52.476;6.046;2023-07-13T01:31:11;1999.90;;;999.90;;
43819;SDS011;67762;52.476;6.046;2023-07-13T01:33:38;1999.90;;;999.90;;
43819;SDS011;67762;52.476;6.046;2023-07-13T01:36:06;1999.90;;;999.90;;
43819;SDS011;67762;52.476;6.046;2023-07-13T01:38:32;1999.90;;;999.90;;
43819;SDS011;67762;52.476;6.046;2023-07-13T01:41:00;1999.90;;;999.90;;
43819;SDS011;67762;52.476;6.046;2023-07-13T01:43:26;1999.90;;;999.90;;
43819;SDS011;67762;52.476;6.046;2023-07-13T01:45:52;1999.90;;;999.90;;
43819;SDS011;67762;52.476;6.046;2023-07-13T01:48:17;1999.90;;;999.90;;
43819;SDS011;67762;52.476;6.046;2023-07-13T01:50:43;1999.90;;;999.90;;
43819;SDS011;67762;52.476;6.046;2023-07-13T01:53:09;1999.90;;;999.90;;
43819;SDS011;67762;52.476;6.046;2023-07-13T01:55:34;1999.90;;;999.90;;
43819;SDS011;67762;52.476;6.046;2023-07-13T01:58:01;1999.90;;;999.90;;
43819;SDS011;67762;52.476;6.046;2023-07-13T02:00:29;1999.90;;;999.90;;
43819;SDS011;67762;52.476;6.046;2023-07-13T02:02:55;1999.90;;;999.90;;
43819;SDS011;67762;52.476;6.046;2023-07-13T02:05:21;1999.90;;;999.90;;
43819;SDS011;67762;52.476;6.046;2023-07-13T02:07:46;1999.90;;;999.90;;
43819;SDS011;67762;52.476;6.046;2023-07-13T02:10:12;1999.90;;;999.90;;
43819;SDS011;67762;52.476;6.046;2023-07-13T02:12:39;1999.90;;;999.90;;
43819;SDS011;67762;52.476;6.046;2023-07-13T02:15:06;1999.90;;;999.90;;
43819;SDS011;67762;52.476;6.046;2023-07-13T02:17:33;1999.90;;;999.90;;
43819;SDS011;67762;52.476;6.046;2023-07-13T02:20:00;1999.90;;;999.90;;
43819;SDS011;67762;52.476;6.046;2023-07-13T02:22:26;1999.90;;;999.90;;
43819;SDS011;67762;52.476;6.046;2023-07-13T02:24:51;1999.90;;;999.90;;
43819;SDS011;67762;52.476;6.046;2023-07-13T02:27:18;1999.90;;;999.90;;
43819;SDS011;67762;52.476;6.046;2023-07-13T02:29:44;1999.90;;;999.90;;
43819;SDS011;67762;52.476;6.046;2023-07-13T02:32:09;1999.90;;;999.90;;
43819;SDS011;67762;52.476;6.046;2023-07-13T02:34:35;1999.90;;;999.90;;
43819;SDS011;67762;52.476;6.046;2023-07-13T02:37:03;1999.90;;;999.90;;
43819;SDS011;67762;52.476;6.046;2023-07-13T02:39:29;1999.90;;;999.90;;
43819;SDS011;67762;52.476;6.046;2023-07-13T02:41:58;1999.90;;;999.90;;
43819;SDS011;67762;52.476;6.046;2023-07-13T02:44:26;1999.90;;;999.90;;
43819;SDS011;67762;52.476;6.046;2023-07-13T02:46:52;1999.90;;;999.90;;
43819;SDS011;67762;52.476;6.046;2023-07-13T02:49:18;1999.90;;;999.90;;
43819;SDS011;67762;52.476;6.046;2023-07-13T02:51:43;1999.90;;;999.90;;
43819;SDS011;67762;52.476;6.046;2023-07-13T02:54:09;1999.90;;;999.90;;
43819;SDS011;67762;52.476;6.046;2023-07-13T02:56:37;1999.90;;;999.90;;
43819;SDS011;67762;52.476;6.046;2023-07-13T02:59:04;1999.90;;;999.90;;
43819;SDS011;67762;52.476;6.046;2023-07-13T03:01:30;1999.90;;;999.90;;
43819;SDS011;67762;52.476;6.046;2023-07-13T03:03:58;1999.90;;;999.90;;
43819;SDS011;67762;52.476;6.046;2023-07-13T03:06:24;1999.90;;;999.90;;
43819;SDS011;67762;52.476;6.046;2023-07-13T03:08:52;1999.90;;;999.90;;
43819;SDS011;67762;52.476;6.046;2023-07-13T03:11:19;1999.90;;;999.90;;
43819;SDS011;67762;52.476;6.046;2023-07-13T03:13:59;1999.90;;;999.90;;
43819;SDS011;67762;52.476;6.046;2023-07-13T03:16:27;1999.90;;;999.90;;
43819;SDS011;67762;52.476;6.046;2023-07-13T03:18:53;1999.90;;;999.90;;
43819;SDS011;67762;52.476;6.046;2023-07-13T03:21:19;1999.90;;;999.90;;
43819;SDS011;67762;52.476;6.046;2023-07-13T03:23:45;1999.90;;;999.90;;
43819;SDS011;67762;52.476;6.046;2023-07-13T03:26:12;1999.90;;;999.90;;
43819;SDS011;67762;52.476;6.046;2023-07-13T03:28:41;1999.90;;;999.90;;
43819;SDS011;67762;52.476;6.046;2023-07-13T03:31:15;1999.90;;;999.90;;
43819;SDS011;67762;52.476;6.046;2023-07-13T03:33:43;1999.90;;;999.90;;
43819;SDS011;67762;52.476;6.046;2023-07-13T03:36:12;1999.90;;;999.90;;
43819;SDS011;67762;52.476;6.046;2023-07-13T03:38:41;1999.90;;;999.90;;
43819;SDS011;67762;52.476;6.046;2023-07-13T03:41:07;1999.90;;;999.90;;
43819;SDS011;67762;52.476;6.046;2023-07-13T03:43:33;1999.90;;;999.90;;
43819;SDS011;67762;52.476;6.046;2023-07-13T03:45:58;1999.90;;;999.90;;
43819;SDS011;67762;52.476;6.046;2023-07-13T03:48:24;1999.90;;;999.90;;
43819;SDS011;67762;52.476;6.046;2023-07-13T03:50:50;1999.90;;;999.90;;
43819;SDS011;67762;52.476;6.046;2023-07-13T03:53:16;1999.90;;;999.90;;
43819;SDS011;67762;52.476;6.046;2023-07-13T03:55:42;1999.90;;;999.90;;
43819;SDS011;67762;52.476;6.046;2023-07-13T04:00:58;1999.90;;;999.90;;
43819;SDS011;67762;52.476;6.046;2023-07-13T04:03:25;1999.90;;;999.90;;
43819;SDS011;67762;52.476;6.046;2023-07-13T04:05:54;1999.90;;;999.90;;
43819;SDS011;67762;52.476;6.046;2023-07-13T04:08:35;1999.90;;;999.90;;
43819;SDS011;67762;52.476;6.046;2023-07-13T04:11:01;1999.90;;;999.90;;
43819;SDS011;67762;52.476;6.046;2023-07-13T04:13:28;1999.90;;;999.90;;
43819;SDS011;67762;52.476;6.046;2023-07-13T04:15:54;1999.90;;;999.90;;
43819;SDS011;67762;52.476;6.046;2023-07-13T04:18:20;1999.90;;;999.90;;
43819;SDS011;67762;52.476;6.046;2023-07-13T04:20:46;1999.90;;;999.90;;
43819;SDS011;67762;52.476;6.046;2023-07-13T04:23:13;1999.90;;;999.90;;
43819;SDS011;67762;52.476;6.046;2023-07-13T04:25:39;1999.90;;;999.90;;
43819;SDS011;67762;52.476;6.046;2023-07-13T04:28:08;1999.90;;;999.90;;
43819;SDS011;67762;52.476;6.046;2023-07-13T04:30:34;1999.90;;;999.90;;
43819;SDS011;67762;52.476;6.046;2023-07-13T04:33:00;1999.90;;;999.90;;
43819;SDS011;67762;52.476;6.046;2023-07-13T04:35:26;1999.90;;;999.90;;
43819;SDS011;67762;52.476;6.046;2023-07-13T04:37:52;1999.90;;;999.90;;
43819;SDS011;67762;52.476;6.046;2023-07-13T04:40:19;1999.90;;;999.90;;
43819;SDS011;67762;52.476;6.046;2023-07-13T04:42:45;1999.90;;;999.90;;
43819;SDS011;67762;52.476;6.046;2023-07-13T04:45:13;1999.90;;;999.90;;
43819;SDS011;67762;52.476;6.046;2023-07-13T04:47:40;1999.90;;;999.90;;
43819;SDS011;67762;52.476;6.046;2023-07-13T04:50:07;1999.90;;;999.90;;
43819;SDS011;67762;52.476;6.046;2023-07-13T04:52:33;1999.90;;;999.90;;
43819;SDS011;67762;52.476;6.046;2023-07-13T04:54:59;1999.90;;;999.90;;
43819;SDS011;67762;52.476;6.046;2023-07-13T04:57:26;1999.90;;;999.90;;
43819;SDS011;67762;52.476;6.046;2023-07-13T04:59:52;1999.90;;;999.90;;
43819;SDS011;67762;52.476;6.046;2023-07-13T05:02:20;1999.90;;;999.90;;
43819;SDS011;67762;52.476;6.046;2023-07-13T05:04:46;1999.90;;;999.90;;
43819;SDS011;67762;52.476;6.046;2023-07-13T05:07:13;1999.90;;;999.90;;
43819;SDS011;67762;52.476;6.046;2023-07-13T05:09:39;1999.90;;;999.90;;
43819;SDS011;67762;52.476;6.046;2023-07-13T05:12:06;1999.90;;;999.90;;
43819;SDS011;67762;52.476;6.046;2023-07-13T05:14:32;1999.90;;;999.90;;
43819;SDS011;67762;52.476;6.046;2023-07-13T05:16:58;1999.90;;;999.90;;
43819;SDS011;67762;52.476;6.046;2023-07-13T05:19:24;1999.90;;;999.90;;
43819;SDS011;67762;52.476;6.046;2023-07-13T05:21:50;1999.90;;;999.90;;
43819;SDS011;67762;52.476;6.046;2023-07-13T05:24:16;1999.90;;;999.90;;
43819;SDS011;67762;52.476;6.046;2023-07-13T05:26:42;1999.90;;;999.90;;
43819;SDS011;67762;52.476;6.046;2023-07-13T05:29:07;1999.90;;;999.90;;
43819;SDS011;67762;52.476;6.046;2023-07-13T05:31:33;1999.90;;;999.90;;
43819;SDS011;67762;52.476;6.046;2023-07-13T05:33:59;1999.90;;;999.90;;
43819;SDS011;67762;52.476;6.046;2023-07-13T05:36:24;1999.90;;;999.90;;
43819;SDS011;67762;52.476;6.046;2023-07-13T05:38:50;1999.90;;;999.90;;
43819;SDS011;67762;52.476;6.046;2023-07-13T05:41:16;1999.90;;;999.90;;
43819;SDS011;67762;52.476;6.046;2023-07-13T05:43:42;1999.90;;;999.90;;
43819;SDS011;67762;52.476;6.046;2023-07-13T05:46:07;1999.90;;;999.90;;
43819;SDS011;67762;52.476;6.046;2023-07-13T05:48:33;1999.90;;;999.90;;
43819;SDS011;67762;52.476;6.046;2023-07-13T05:50:59;1999.90;;;999.90;;
43819;SDS011;67762;52.476;6.046;2023-07-13T05:53:24;1999.90;;;999.90;;
43819;SDS011;67762;52.476;6.046;2023-07-13T05:55:50;1999.90;;;999.90;;
43819;SDS011;67762;52.476;6.046;2023-07-13T05:58:16;1999.90;;;999.90;;
43819;SDS011;67762;52.476;6.046;2023-07-13T06:00:42;1999.90;;;999.90;;
43819;SDS011;67762;52.476;6.046;2023-07-13T06:03:08;1999.90;;;999.90;;
43819;SDS011;67762;52.476;6.046;2023-07-13T06:05:34;1999.90;;;999.90;;
43819;SDS011;67762;52.476;6.046;2023-07-13T06:08:02;1999.90;;;999.90;;
43819;SDS011;67762;52.476;6.046;2023-07-13T06:10:28;1999.90;;;999.90;;
43819;SDS011;67762;52.476;6.046;2023-07-13T06:12:53;1999.90;;;999.90;;
43819;SDS011;67762;52.476;6.046;2023-07-13T06:15:19;1999.90;;;999.90;;
43819;SDS011;67762;52.476;6.046;2023-07-13T06:17:45;1999.90;;;999.90;;
43819;SDS011;67762;52.476;6.046;2023-07-13T06:20:10;1999.90;;;999.90;;
43819;SDS011;67762;52.476;6.046;2023-07-13T06:22:36;1999.90;;;999.90;;
43819;SDS011;67762;52.476;6.046;2023-07-13T06:25:02;1999.90;;;999.90;;
43819;SDS011;67762;52.476;6.046;2023-07-13T06:27:28;1999.90;;;999.90;;
43819;SDS011;67762;52.476;6.046;2023-07-13T06:29:54;1999.90;;;999.90;;
43819;SDS011;67762;52.476;6.046;2023-07-13T06:32:19;1999.90;;;999.90;;
43819;SDS011;67762;52.476;6.046;2023-07-13T06:34:46;1999.90;;;999.90;;
43819;SDS011;67762;52.476;6.046;2023-07-13T06:37:12;1999.90;;;999.90;;
43819;SDS011;67762;52.476;6.046;2023-07-13T06:39:37;1999.90;;;999.90;;
43819;SDS011;67762;52.476;6.046;2023-07-13T06:42:03;1999.90;;;999.90;;
43819;SDS011;67762;52.476;6.046;2023-07-13T06:44:31;1999.90;;;999.90;;
43819;SDS011;67762;52.476;6.046;2023-07-13T06:46:56;1999.90;;;999.90;;
43819;SDS011;67762;52.476;6.046;2023-07-13T06:49:22;1999.90;;;999.90;;
43819;SDS011;67762;52.476;6.046;2023-07-13T06:51:48;1999.90;;;999.90;;
43819;SDS011;67762;52.476;6.046;2023-07-13T06:54:14;1999.90;;;999.90;;
43819;SDS011;67762;52.476;6.046;2023-07-13T06:56:40;1999.90;;;999.90;;
43819;SDS011;67762;52.476;6.046;2023-07-13T06:59:05;1999.90;;;999.90;;
43819;SDS011;67762;52.476;6.046;2023-07-13T07:01:31;1999.90;;;999.90;;
43819;SDS011;67762;52.476;6.046;2023-07-13T07:03:57;1999.90;;;999.90;;
43819;SDS011;67762;52.476;6.046;2023-07-13T07:06:22;1999.90;;;999.90;;
43819;SDS011;67762;52.476;6.046;2023-07-13T07:08:49;1999.90;;;999.90;;
43819;SDS011;67762;52.476;6.046;2023-07-13T07:11:20;1999.90;;;999.90;;
43819;SDS011;67762;52.476;6.046;2023-07-13T07:13:49;1999.90;;;999.90;;
43819;SDS011;67762;52.476;6.046;2023-07-13T07:16:15;1999.90;;;999.90;;
43819;SDS011;67762;52.476;6.046;2023-07-13T07:18:41;1999.90;;;999.90;;
43819;SDS011;67762;52.476;6.046;2023-07-13T07:21:07;1999.90;;;999.90;;
43819;SDS011;67762;52.476;6.046;2023-07-13T07:23:33;1999.90;;;999.90;;
43819;SDS011;67762;52.476;6.046;2023-07-13T07:25:58;1999.90;;;999.90;;
43819;SDS011;67762;52.476;6.046;2023-07-13T07:28:24;1999.90;;;999.90;;
43819;SDS011;67762;52.476;6.046;2023-07-13T07:30:52;1999.90;;;999.90;;
43819;SDS011;67762;52.476;6.046;2023-07-13T07:33:19;1999.90;;;999.90;;
43819;SDS011;67762;52.476;6.046;2023-07-13T07:35:44;1999.90;;;999.90;;
43819;SDS011;67762;52.476;6.046;2023-07-13T07:38:10;1999.90;;;999.90;;
43819;SDS011;67762;52.476;6.046;2023-07-13T07:40:37;1999.90;;;999.90;;
43819;SDS011;67762;52.476;6.046;2023-07-13T07:43:04;101.53;;;96.07;;
43819;SDS011;67762;52.476;6.046;2023-07-13T07:45:30;1999.90;;;999.90;;
43819;SDS011;67762;52.476;6.046;2023-07-13T07:47:56;571.65;;;317.48;;
43819;SDS011;67762;52.476;6.046;2023-07-13T07:50:24;1999.90;;;999.90;;
43819;SDS011;67762;52.476;6.046;2023-07-13T07:52:51;1999.90;;;999.90;;
43819;SDS011;67762;52.476;6.046;2023-07-13T07:55:17;1999.90;;;999.90;;
43819;SDS011;67762;52.476;6.046;2023-07-13T07:57:43;1999.90;;;999.90;;
43819;SDS011;67762;52.476;6.046;2023-07-13T08:00:09;1999.90;;;999.90;;
43819;SDS011;67762;52.476;6.046;2023-07-13T08:02:40;1999.90;;;999.90;;
43819;SDS011;67762;52.476;6.046;2023-07-13T08:05:07;1999.90;;;999.90;;
43819;SDS011;67762;52.476;6.046;2023-07-13T08:07:33;1999.90;;;999.90;;
43819;SDS011;67762;52.476;6.046;2023-07-13T08:09:59;1512.00;;;761.38;;
43819;SDS011;67762;52.476;6.046;2023-07-13T08:12:25;52.15;;;49.42;;
43819;SDS011;67762;52.476;6.046;2023-07-13T08:14:51;1999.90;;;999.90;;
43819;SDS011;67762;52.476;6.046;2023-07-13T08:17:23;1999.90;;;999.90;;
43819;SDS011;67762;52.476;6.046;2023-07-13T08:19:50;1999.90;;;999.90;;
43819;SDS011;67762;52.476;6.046;2023-07-13T08:22:16;84.25;;;79.45;;
43819;SDS011;67762;52.476;6.046;2023-07-13T08:24:42;1999.90;;;999.90;;
43819;SDS011;67762;52.476;6.046;2023-07-13T08:27:08;1999.90;;;999.90;;
43819;SDS011;67762;52.476;6.046;2023-07-13T08:29:36;1999.90;;;999.90;;
43819;SDS011;67762;52.476;6.046;2023-07-13T08:32:04;1999.90;;;999.90;;
43819;SDS011;67762;52.476;6.046;2023-07-13T08:34:31;1999.90;;;999.90;;
43819;SDS011;67762;52.476;6.046;2023-07-13T08:36:57;1999.90;;;999.90;;
43819;SDS011;67762;52.476;6.046;2023-07-13T08:39:22;1999.90;;;999.90;;
43819;SDS011;67762;52.476;6.046;2023-07-13T08:41:49;1999.90;;;999.90;;
43819;SDS011;67762;52.476;6.046;2023-07-13T08:44:27;1999.90;;;999.90;;
43819;SDS011;67762;52.476;6.046;2023-07-13T08:47:05;1999.90;;;999.90;;
43819;SDS011;67762;52.476;6.046;2023-07-13T08:49:34;1999.90;;;999.90;;
43819;SDS011;67762;52.476;6.046;2023-07-13T08:52:08;1999.90;;;999.90;;
43819;SDS011;67762;52.476;6.046;2023-07-13T08:54:54;1999.90;;;999.90;;
43819;SDS011;67762;52.476;6.046;2023-07-13T08:57:23;1999.90;;;999.90;;
43819;SDS011;67762;52.476;6.046;2023-07-13T08:59:55;1999.90;;;999.90;;
43819;SDS011;67762;52.476;6.046;2023-07-13T09:05:25;1999.90;;;999.90;;
43819;SDS011;67762;52.476;6.046;2023-07-13T09:08:02;1999.90;;;999.90;;
43819;SDS011;67762;52.476;6.046;2023-07-13T09:10:33;1999.90;;;999.90;;
43819;SDS011;67762;52.476;6.046;2023-07-13T09:15:56;1999.90;;;999.90;;
43819;SDS011;67762;52.476;6.046;2023-07-13T09:21:09;1999.90;;;999.90;;
43819;SDS011;67762;52.476;6.046;2023-07-13T09:23:38;1999.90;;;999.90;;
43819;SDS011;67762;52.476;6.046;2023-07-13T09:28:39;1999.90;;;999.90;;
43819;SDS011;67762;52.476;6.046;2023-07-13T09:31:12;1999.90;;;999.90;;
43819;SDS011;67762;52.476;6.046;2023-07-13T09:33:40;1999.90;;;999.90;;
43819;SDS011;67762;52.476;6.046;2023-07-13T09:36:49;1999.90;;;999.90;;
43819;SDS011;67762;52.476;6.046;2023-07-13T09:42:07;1999.90;;;999.90;;
43819;SDS011;67762;52.476;6.046;2023-07-13T09:47:16;1999.90;;;999.90;;
43819;SDS011;67762;52.476;6.046;2023-07-13T09:49:44;1999.90;;;999.90;;
43819;SDS011;67762;52.476;6.046;2023-07-13T09:52:11;1999.90;;;999.90;;
43819;SDS011;67762;52.476;6.046;2023-07-13T09:54:43;1999.90;;;999.90;;
43819;SDS011;67762;52.476;6.046;2023-07-13T09:57:22;1999.90;;;999.90;;
43819;SDS011;67762;52.476;6.046;2023-07-13T09:59:50;1999.90;;;999.90;;
43819;SDS011;67762;52.476;6.046;2023-07-13T10:02:30;1999.90;;;999.90;;
43819;SDS011;67762;52.476;6.046;2023-07-13T10:05:04;1999.90;;;999.90;;
43819;SDS011;67762;52.476;6.046;2023-07-13T10:07:35;1999.90;;;999.90;;
43819;SDS011;67762;52.476;6.046;2023-07-13T10:10:12;1999.90;;;999.90;;
43819;SDS011;67762;52.476;6.046;2023-07-13T10:12:40;1999.90;;;999.90;;
43819;SDS011;67762;52.476;6.046;2023-07-13T10:15:17;1999.90;;;999.90;;
43819;SDS011;67762;52.476;6.046;2023-07-13T10:17:44;1999.90;;;999.90;;
43819;SDS011;67762;52.476;6.046;2023-07-13T10:20:11;1999.90;;;999.90;;
43819;SDS011;67762;52.476;6.046;2023-07-13T10:22:45;1999.90;;;999.90;;
43819;SDS011;67762;52.476;6.046;2023-07-13T10:25:20;1999.90;;;999.90;;
43819;SDS011;67762;52.476;6.046;2023-07-13T10:27:49;1999.90;;;999.90;;
43819;SDS011;67762;52.476;6.046;2023-07-13T10:30:22;1999.90;;;999.90;;
43819;SDS011;67762;52.476;6.046;2023-07-13T10:32:53;1999.90;;;999.90;;
43819;SDS011;67762;52.476;6.046;2023-07-13T10:35:20;1999.90;;;999.90;;
43819;SDS011;67762;52.476;6.046;2023-07-13T10:37:49;1999.90;;;999.90;;
43819;SDS011;67762;52.476;6.046;2023-07-13T10:40:46;1999.90;;;999.90;;
43819;SDS011;67762;52.476;6.046;2023-07-13T10:46:05;1999.90;;;999.90;;
43819;SDS011;67762;52.476;6.046;2023-07-13T10:48:34;1999.90;;;999.90;;
43819;SDS011;67762;52.476;6.046;2023-07-13T10:51:03;1999.90;;;999.90;;
43819;SDS011;67762;52.476;6.046;2023-07-13T10:53:32;1999.90;;;999.90;;
43819;SDS011;67762;52.476;6.046;2023-07-13T10:58:41;1999.90;;;999.90;;
43819;SDS011;67762;52.476;6.046;2023-07-13T11:01:09;1999.90;;;999.90;;
43819;SDS011;67762;52.476;6.046;2023-07-13T11:18:44;1999.90;;;999.90;;
43819;SDS011;67762;52.476;6.046;2023-07-13T11:23:42;1999.90;;;999.90;;
43819;SDS011;67762;52.476;6.046;2023-07-13T11:31:59;1999.90;;;999.90;;
43819;SDS011;67762;52.476;6.046;2023-07-13T11:34:27;1999.90;;;999.90;;
43819;SDS011;67762;52.476;6.046;2023-07-13T11:36:57;1999.90;;;999.90;;
43819;SDS011;67762;52.476;6.046;2023-07-13T11:39:32;1999.90;;;999.90;;
43819;SDS011;67762;52.476;6.046;2023-07-13T11:42:01;1999.90;;;999.90;;
43819;SDS011;67762;52.476;6.046;2023-07-13T11:44:33;1999.90;;;999.90;;
43819;SDS011;67762;52.476;6.046;2023-07-13T11:47:07;1999.90;;;999.90;;
43819;SDS011;67762;52.476;6.046;2023-07-13T11:49:40;1999.90;;;999.90;;
43819;SDS011;67762;52.476;6.046;2023-07-13T11:52:12;1999.90;;;999.90;;
43819;SDS011;67762;52.476;6.046;2023-07-13T11:54:46;1999.90;;;999.90;;
43819;SDS011;67762;52.476;6.046;2023-07-13T11:59:53;1999.90;;;999.90;;
43819;SDS011;67762;52.476;6.046;2023-07-13T12:05:03;1999.90;;;999.90;;
43819;SDS011;67762;52.476;6.046;2023-07-13T12:07:30;1999.90;;;999.90;;
43819;SDS011;67762;52.476;6.046;2023-07-13T12:10:20;1999.90;;;999.90;;
43819;SDS011;67762;52.476;6.046;2023-07-13T12:12:58;1999.90;;;999.90;;
43819;SDS011;67762;52.476;6.046;2023-07-13T12:15:28;1999.90;;;999.90;;
43819;SDS011;67762;52.476;6.046;2023-07-13T12:18:02;1999.90;;;999.90;;
43819;SDS011;67762;52.476;6.046;2023-07-13T12:20:33;1999.90;;;999.90;;
43819;SDS011;67762;52.476;6.046;2023-07-13T12:23:04;1999.90;;;999.90;;
43819;SDS011;67762;52.476;6.046;2023-07-13T12:25:31;1999.90;;;999.90;;
43819;SDS011;67762;52.476;6.046;2023-07-13T12:27:57;1999.90;;;999.90;;
43819;SDS011;67762;52.476;6.046;2023-07-13T12:30:30;1999.90;;;999.90;;
43819;SDS011;67762;52.476;6.046;2023-07-13T12:33:00;1999.90;;;999.90;;
43819;SDS011;67762;52.476;6.046;2023-07-13T12:35:29;1999.90;;;999.90;;
43819;SDS011;67762;52.476;6.046;2023-07-13T12:38:00;1999.90;;;999.90;;
43819;SDS011;67762;52.476;6.046;2023-07-13T12:40:29;1999.90;;;999.90;;
43819;SDS011;67762;52.476;6.046;2023-07-13T12:42:58;1999.90;;;999.90;;
43819;SDS011;67762;52.476;6.046;2023-07-13T12:45:26;1999.90;;;999.90;;
43819;SDS011;67762;52.476;6.046;2023-07-13T12:48:03;1999.90;;;999.90;;
43819;SDS011;67762;52.476;6.046;2023-07-13T12:50:41;1999.90;;;999.90;;
43819;SDS011;67762;52.476;6.046;2023-07-13T12:53:21;1999.90;;;999.90;;
43819;SDS011;67762;52.476;6.046;2023-07-13T12:55:50;1999.90;;;999.90;;
43819;SDS011;67762;52.476;6.046;2023-07-13T12:58:26;1999.90;;;999.90;;
43819;SDS011;67762;52.476;6.046;2023-07-13T13:00:59;1999.90;;;999.90;;
43819;SDS011;67762;52.476;6.046;2023-07-13T13:05:57;1999.90;;;999.90;;
43819;SDS011;67762;52.476;6.046;2023-07-13T13:08:25;1999.90;;;999.90;;
43819;SDS011;67762;52.476;6.046;2023-07-13T13:10:51;1999.90;;;999.90;;
43819;SDS011;67762;52.476;6.046;2023-07-13T13:13:17;1514.53;;;763.67;;
43819;SDS011;67762;52.476;6.046;2023-07-13T13:15:42;1999.90;;;999.90;;
43819;SDS011;67762;52.476;6.046;2023-07-13T13:18:13;1999.90;;;999.90;;
43819;SDS011;67762;52.476;6.046;2023-07-13T13:20:41;1541.05;;;788.50;;
43819;SDS011;67762;52.476;6.046;2023-07-13T13:23:10;1999.90;;;999.90;;
43819;SDS011;67762;52.476;6.046;2023-07-13T13:25:46;1089.13;;;582.92;;
43819;SDS011;67762;52.476;6.046;2023-07-13T13:28:20;1999.90;;;999.90;;
43819;SDS011;67762;52.476;6.046;2023-07-13T13:30:49;1999.90;;;999.90;;
43819;SDS011;67762;52.476;6.046;2023-07-13T13:33:17;1999.90;;;999.90;;
43819;SDS011;67762;52.476;6.046;2023-07-13T13:35:45;1999.90;;;999.90;;
43819;SDS011;67762;52.476;6.046;2023-07-13T13:40:40;1022.65;;;520.75;;
43819;SDS011;67762;52.476;6.046;2023-07-13T13:43:25;1999.90;;;999.90;;
43819;SDS011;67762;52.476;6.046;2023-07-13T13:45:56;1999.90;;;999.90;;
43819;SDS011;67762;52.476;6.046;2023-07-13T13:48:34;1999.90;;;999.90;;
43819;SDS011;67762;52.476;6.046;2023-07-13T13:51:06;238.85;;;225.75;;
43819;SDS011;67762;52.476;6.046;2023-07-13T13:53:40;137.30;;;129.93;;
43819;SDS011;67762;52.476;6.046;2023-07-13T13:56:07;80.57;;;76.47;;
43819;SDS011;67762;52.476;6.046;2023-07-13T13:58:32;76.68;;;71.90;;
43819;SDS011;67762;52.476;6.046;2023-07-13T14:00:58;59.92;;;56.50;;
43819;SDS011;67762;52.476;6.046;2023-07-13T14:03:24;55.30;;;52.13;;
43819;SDS011;67762;52.476;6.046;2023-07-13T14:05:50;126.10;;;118.95;;
43819;SDS011;67762;52.476;6.046;2023-07-13T14:08:18;60.35;;;57.13;;
43819;SDS011;67762;52.476;6.046;2023-07-13T14:10:46;56.90;;;53.55;;
43819;SDS011;67762;52.476;6.046;2023-07-13T14:13:24;140.88;;;133.27;;
43819;SDS011;67762;52.476;6.046;2023-07-13T14:15:56;58.90;;;55.63;;
43819;SDS011;67762;52.476;6.046;2023-07-13T14:18:22;86.45;;;81.72;;
43819;SDS011;67762;52.476;6.046;2023-07-13T14:20:49;152.50;;;144.05;;
43819;SDS011;67762;52.476;6.046;2023-07-13T14:23:17;114.05;;;107.68;;
43819;SDS011;67762;52.476;6.046;2023-07-13T14:25:44;68.30;;;64.40;;
43819;SDS011;67762;52.476;6.046;2023-07-13T14:28:24;66.68;;;63.00;;
43819;SDS011;67762;52.476;6.046;2023-07-13T14:30:52;59.70;;;56.20;;
43819;SDS011;67762;52.476;6.046;2023-07-13T14:33:22;70.40;;;66.57;;
43819;SDS011;67762;52.476;6.046;2023-07-13T14:35:48;84.03;;;79.10;;
43819;SDS011;67762;52.476;6.046;2023-07-13T14:38:17;64.25;;;60.75;;
43819;SDS011;67762;52.476;6.046;2023-07-13T14:40:45;47.50;;;44.58;;
43819;SDS011;67762;52.476;6.046;2023-07-13T14:43:12;67.32;;;63.38;;
43819;SDS011;67762;52.476;6.046;2023-07-13T14:45:41;110.05;;;103.28;;
43819;SDS011;67762;52.476;6.046;2023-07-13T14:48:19;51.88;;;48.80;;
43819;SDS011;67762;52.476;6.046;2023-07-13T14:50:49;65.45;;;61.78;;
43819;SDS011;67762;52.476;6.046;2023-07-13T14:53:18;97.70;;;91.88;;